Time;durP1;ratioP1;P1;durP2;ratioP2;P2;SDS_P1;SDS_P2;PMS_P1;PMS_P2;Temp;Humidity;BMP_temperature;BMP_pressure;BME280_temperature;BME280_humidity;BME280_pressure;Samples;Min_cycle;Max_cycle;Signal;HPM_P1;HPM_P2
2023/02/14 00:01:20;;;;;;;52.77;34.17;;;4.80;99.90;;;;;;5101267;28;20224;-79
2023/02/14 00:03:49;;;;;;;53.97;34.73;;;4.80;99.90;;;;;;5099581;28;20201;-77
2023/02/14 00:06:18;;;;;;;52.83;33.83;;;4.70;99.90;;;;;;5099705;28;20189;-91
2023/02/14 00:08:45;;;;;;;53.03;34.00;;;4.70;99.90;;;;;;5098064;28;20205;-78
2023/02/14 00:11:14;;;;;;;47.03;32.47;;;4.80;99.90;;;;;;5097751;28;20205;-77
2023/02/14 00:15:20;;;;;;;54.17;33.80;;;4.70;99.90;;;;;;5101733;28;20221;-76
2023/02/14 00:16:28;;;;;;;54.03;33.60;;;4.70;99.90;;;;;;5105273;28;20221;-75
2023/02/14 00:19:03;;;;;;;52.27;33.20;;;4.60;99.90;;;;;;5106068;28;20254;-76
2023/02/14 00:21:31;;;;;;;48.50;30.80;;;4.50;99.90;;;;;;5105239;28;20197;-77
2023/02/14 00:23:59;;;;;;;47.53;31.63;;;4.50;99.90;;;;;;5106038;28;20203;-76
2023/02/14 00:26:26;;;;;;;50.10;31.53;;;4.50;99.90;;;;;;5107123;28;20215;-77
2023/02/14 00:28:53;;;;;;;50.17;32.47;;;4.50;99.90;;;;;;5099528;28;20201;-84
2023/02/14 00:31:20;;;;;;;50.97;33.57;;;4.50;99.90;;;;;;5095323;28;20446;-80
2023/02/14 00:33:47;;;;;;;49.60;32.23;;;4.40;99.90;;;;;;5096442;28;20197;-76
2023/02/14 00:36:17;;;;;;;52.60;32.80;;;4.40;99.90;;;;;;5095040;28;20228;-77
2023/02/14 00:38:45;;;;;;;52.30;35.23;;;4.30;99.90;;;;;;5095501;28;20208;-76
2023/02/14 00:41:17;;;;;;;56.37;34.20;;;4.30;99.90;;;;;;5095190;28;20464;-89
2023/02/14 00:43:48;;;;;;;48.30;32.43;;;4.30;99.90;;;;;;5095834;28;20698;-78
2023/02/14 00:46:19;;;;;;;47.53;31.23;;;4.30;99.90;;;;;;5095351;28;20211;-80
2023/02/14 00:48:46;;;;;;;54.72;35.90;;;4.20;99.90;;;;;;5095035;28;20454;-79
2023/02/14 00:51:17;;;;;;;59.57;35.13;;;4.20;99.90;;;;;;5094726;28;20686;-81
2023/02/14 00:53:44;;;;;;;55.93;33.63;;;4.20;99.90;;;;;;5095346;28;20539;-76
2023/02/14 00:56:12;;;;;;;53.37;32.97;;;4.20;99.90;;;;;;5095226;28;20212;-77
2023/02/14 00:58:39;;;;;;;54.73;33.93;;;4.10;99.90;;;;;;5094490;28;20446;-78
2023/02/14 01:01:09;;;;;;;50.47;32.10;;;4.10;99.90;;;;;;5094642;28;20186;-83
2023/02/14 01:03:36;;;;;;;57.13;33.40;;;4.10;99.90;;;;;;5094670;28;20453;-79
2023/02/14 01:06:04;;;;;;;52.13;33.20;;;4.20;99.90;;;;;;5095833;28;20208;-78
2023/02/14 01:08:32;;;;;;;52.07;32.90;;;4.10;99.90;;;;;;5095506;28;20956;-80
2023/02/14 01:11:07;;;;;;;55.50;33.47;;;4.10;99.90;;;;;;5094505;28;20208;-80
2023/02/14 01:13:34;;;;;;;52.67;32.40;;;4.10;99.90;;;;;;5095935;28;20468;-78
2023/02/14 01:16:07;;;;;;;54.87;32.10;;;4.10;99.90;;;;;;5094995;28;20485;-77
2023/02/14 01:18:34;;;;;;;57.73;37.17;;;4.10;99.90;;;;;;5096310;28;20483;-79
2023/02/14 01:21:22;;;;;;;53.93;33.33;;;4.00;99.90;;;;;;5097791;28;20446;-79
2023/02/14 01:23:54;;;;;;;54.57;32.47;;;4.10;99.90;;;;;;5097765;28;20453;-79
2023/02/14 01:26:22;;;;;;;53.13;34.53;;;4.00;99.90;;;;;;5097798;28;20212;-88
2023/02/14 01:28:56;;;;;;;54.63;34.57;;;4.00;99.90;;;;;;5098225;28;20445;-77
2023/02/14 01:31:25;;;;;;;53.63;32.70;;;4.00;99.90;;;;;;5097105;28;21027;-83
2023/02/14 01:33:54;;;;;;;52.73;33.77;;;4.00;99.90;;;;;;5095365;28;20460;-79
2023/02/14 01:36:23;;;;;;;54.07;32.17;;;3.90;99.90;;;;;;5095975;28;21007;-75
2023/02/14 01:38:54;;;;;;;57.83;34.10;;;3.90;99.90;;;;;;5095444;28;20457;-76
2023/02/14 01:41:23;;;;;;;50.37;33.40;;;3.90;99.90;;;;;;5096520;28;20438;-75
2023/02/14 01:43:55;;;;;;;56.50;34.47;;;4.00;99.90;;;;;;5096862;28;20315;-74
2023/02/14 01:46:22;;;;;;;53.97;32.37;;;4.00;99.90;;;;;;5101469;28;20446;-77
2023/02/14 01:48:51;;;;;;;65.53;44.58;;;3.90;99.90;;;;;;5100508;28;20427;-76
2023/02/14 01:51:20;;;;;;;53.93;35.80;;;4.00;99.90;;;;;;5104488;28;20193;-75
2023/02/14 01:53:47;;;;;;;53.73;34.97;;;4.10;99.90;;;;;;5102447;28;20440;-75
2023/02/14 01:56:23;;;;;;;52.13;32.50;;;4.00;99.90;;;;;;5094983;28;20260;-76
2023/02/14 01:59:03;;;;;;;53.80;32.03;;;4.00;99.90;;;;;;5098029;28;20437;-79
2023/02/14 02:01:30;;;;;;;49.23;30.93;;;4.00;99.90;;;;;;5102048;28;20523;-76
2023/02/14 02:04:04;;;;;;;50.00;31.57;;;3.90;99.90;;;;;;5096973;28;20210;-78
2023/02/14 02:06:34;;;;;;;53.13;31.60;;;3.90;99.90;;;;;;5092161;28;20514;-78
2023/02/14 02:09:10;;;;;;;49.73;30.80;;;3.80;99.90;;;;;;5087062;28;20458;-75
2023/02/14 02:11:40;;;;;;;47.70;30.33;;;3.80;99.90;;;;;;5094913;28;20488;-77
2023/02/14 02:14:10;;;;;;;46.07;30.17;;;3.80;99.90;;;;;;5101930;28;20467;-76
2023/02/14 02:17:16;;;;;;;44.20;28.77;;;3.80;99.90;;;;;;5101949;28;20534;-74
2023/02/14 02:20:31;;;;;;;62.75;44.60;;;3.90;99.90;;;;;;5098977;28;20510;-76
2023/02/14 02:23:43;;;;;;;49.60;32.87;;;4.00;99.90;;;;;;5103387;28;20680;-78
2023/02/14 02:26:45;;;;;;;50.77;30.27;;;3.90;99.90;;;;;;5089004;28;20546;-76
2023/02/14 02:29:33;;;;;;;49.70;30.37;;;4.00;99.90;;;;;;5103044;28;20201;-78
2023/02/14 02:32:30;;;;;;;52.40;29.63;;;4.00;99.90;;;;;;5097770;28;20454;-78
2023/02/14 02:35:27;;;;;;;47.60;30.73;;;3.90;99.90;;;;;;5098414;28;20457;-80
2023/02/14 02:38:06;;;;;;;47.07;29.77;;;3.90;99.90;;;;;;5098607;28;20516;-77
2023/02/14 02:40:48;;;;;;;50.93;28.97;;;3.80;99.90;;;;;;5099741;28;20446;-78
2023/02/14 02:43:29;;;;;;;52.97;30.20;;;3.80;99.90;;;;;;5098210;28;20456;-76
2023/02/14 02:48:50;;;;;;;51.23;30.87;;;3.60;99.90;;;;;;5100054;28;20452;-77
2023/02/14 02:54:19;;;;;;;51.13;29.43;;;3.30;99.90;;;;;;5100866;28;20559;-77
2023/02/14 02:56:52;;;;;;;44.43;29.17;;;3.40;99.90;;;;;;5100326;28;20489;-77
2023/02/14 02:59:22;;;;;;;49.90;29.03;;;3.40;99.90;;;;;;5101895;28;20434;-78
2023/02/14 03:01:56;;;;;;;44.37;28.43;;;3.40;99.90;;;;;;5106049;28;20449;-76
2023/02/14 03:09:57;;;;;;;45.60;28.53;;;3.30;99.90;;;;;;5105098;28;20517;-79
2023/02/14 03:12:51;;;;;;;47.80;30.70;;;3.40;99.90;;;;;;5106796;28;20445;-77
2023/02/14 03:15:28;;;;;;;53.00;31.50;;;3.40;99.90;;;;;;5085677;28;20438;-77
2023/02/14 03:18:02;;;;;;;59.03;42.85;;;3.30;99.90;;;;;;5100444;28;20446;-77
2023/02/14 03:20:41;;;;;;;55.33;33.77;;;3.50;99.90;;;;;;5100071;28;20194;-77
2023/02/14 03:23:17;;;;;;;53.97;31.87;;;3.60;99.90;;;;;;5101339;28;20438;-75
2023/02/14 03:25:58;;;;;;;57.13;32.70;;;3.60;99.90;;;;;;5106114;28;20448;-78
2023/02/14 03:28:34;;;;;;;49.70;31.03;;;3.70;99.90;;;;;;5106729;28;20430;-76
2023/02/14 03:31:07;;;;;;;49.57;31.27;;;3.60;99.90;;;;;;5100466;28;20444;-77
2023/02/14 03:33:42;;;;;;;46.00;30.23;;;3.50;99.90;;;;;;5086219;28;20454;-76
2023/02/14 03:36:14;;;;;;;45.13;30.90;;;3.50;99.90;;;;;;5099048;28;20889;-78
2023/02/14 03:38:48;;;;;;;53.90;30.97;;;3.50;99.90;;;;;;5099809;28;20447;-75
2023/02/14 03:41:22;;;;;;;46.67;31.03;;;3.40;99.90;;;;;;5100158;28;20449;-83
2023/02/14 03:43:55;;;;;;;49.30;30.60;;;3.40;99.90;;;;;;5098237;28;20446;-80
2023/02/14 03:46:27;;;;;;;58.63;34.55;;;3.40;99.90;;;;;;5099250;28;20454;-87
2023/02/14 03:49:04;;;;;;;50.23;31.27;;;3.30;99.90;;;;;;5099725;28;20201;-79
2023/02/14 03:51:35;;;;;;;46.63;30.20;;;3.20;99.90;;;;;;5098811;28;20433;-75
2023/02/14 03:54:06;;;;;;;48.77;30.93;;;3.20;99.90;;;;;;5086343;28;20445;-77
2023/02/14 03:56:38;;;;;;;52.27;30.43;;;3.20;99.90;;;;;;5097888;28;20815;-78
2023/02/14 03:59:09;;;;;;;51.10;30.03;;;3.20;99.90;;;;;;5087970;28;20450;-76
2023/02/14 04:01:39;;;;;;;51.47;31.13;;;3.20;99.90;;;;;;5081457;28;20811;-76
2023/02/14 04:04:08;;;;;;;52.60;30.97;;;3.10;99.90;;;;;;5098208;28;20453;-75
2023/02/14 04:06:35;;;;;;;49.80;30.33;;;3.10;99.90;;;;;;5096214;28;20446;-76
2023/02/14 04:09:05;;;;;;;53.00;31.30;;;3.10;99.90;;;;;;5096691;28;20469;-80
2023/02/14 04:11:34;;;;;;;56.57;33.60;;;3.10;99.90;;;;;;5096892;28;20936;-76
2023/02/14 04:14:01;;;;;;;51.97;31.03;;;3.10;99.90;;;;;;5096300;28;20845;-81
2023/02/14 04:16:28;;;;;;;50.13;29.43;;;3.10;99.90;;;;;;5106652;28;20484;-80
2023/02/14 04:21:41;;;;;;;48.70;30.13;;;3.10;99.90;;;;;;5095322;28;20405;-76
2023/02/14 04:24:11;;;;;;;48.33;30.50;;;3.10;99.90;;;;;;5107366;28;20445;-77
2023/02/14 04:26:38;;;;;;;50.53;30.93;;;3.20;99.90;;;;;;5107158;28;20418;-79
2023/02/14 04:29:05;;;;;;;49.80;31.30;;;3.20;99.90;;;;;;5107096;28;20444;-81
2023/02/14 04:31:32;;;;;;;55.53;31.17;;;3.10;99.90;;;;;;5096535;28;20460;-78
2023/02/14 04:34:00;;;;;;;52.50;31.37;;;3.10;99.90;;;;;;5095323;28;20492;-78
2023/02/14 04:36:28;;;;;;;55.80;32.73;;;3.10;99.90;;;;;;5096577;28;20555;-82
2023/02/14 04:38:55;;;;;;;60.13;32.60;;;3.00;99.90;;;;;;5095562;28;20449;-77
2023/02/14 04:41:24;;;;;;;54.33;32.10;;;3.10;99.90;;;;;;5096279;28;20450;-82
2023/02/14 04:43:51;;;;;;;56.93;32.93;;;3.10;99.90;;;;;;5094080;28;20468;-82
2023/02/14 04:46:19;;;;;;;52.17;30.90;;;3.10;99.90;;;;;;5097137;28;20454;-80
2023/02/14 04:48:46;;;;;;;55.63;32.57;;;3.10;99.90;;;;;;5098654;28;20479;-76
2023/02/14 04:51:13;;;;;;;56.93;33.37;;;3.20;99.90;;;;;;5097319;28;20452;-76
2023/02/14 04:53:40;;;;;;;56.40;32.63;;;3.20;99.90;;;;;;5096454;28;20442;-78
2023/02/14 04:56:08;;;;;;;56.93;32.77;;;3.30;99.90;;;;;;5097425;28;20460;-75
2023/02/14 04:58:37;;;;;;;54.80;32.07;;;3.40;99.90;;;;;;5095807;28;20484;-77
2023/02/14 05:01:03;;;;;;;57.63;33.00;;;3.40;99.90;;;;;;5103729;28;20477;-79
2023/02/14 05:03:30;;;;;;;57.13;33.63;;;3.50;99.90;;;;;;5109593;28;20442;-78
2023/02/14 05:05:58;;;;;;;55.70;32.87;;;3.50;99.90;;;;;;5106775;28;20929;-76
2023/02/14 05:08:25;;;;;;;58.83;33.33;;;3.50;99.90;;;;;;5109944;28;20450;-80
2023/02/14 05:10:52;;;;;;;60.73;33.53;;;3.50;99.90;;;;;;5109022;28;20527;-75
2023/02/14 05:13:19;;;;;;;55.20;34.10;;;3.50;99.90;;;;;;5109876;28;20467;-79
2023/02/14 05:15:49;;;;;;;79.32;51.75;;;3.50;99.90;;;;;;5107568;28;20422;-76
2023/02/14 05:18:20;;;;;;;64.33;37.13;;;3.60;99.90;;;;;;5108837;28;20256;-78
2023/02/14 05:20:54;;;;;;;57.83;34.93;;;3.60;99.90;;;;;;5109053;28;20197;-77
2023/02/14 05:23:23;;;;;;;58.23;34.10;;;3.50;99.90;;;;;;5108530;28;20444;-78
2023/02/14 05:25:51;;;;;;;65.07;36.07;;;3.50;99.90;;;;;;5106420;28;20849;-74
2023/02/14 05:28:19;;;;;;;61.67;33.77;;;3.40;99.90;;;;;;5106617;28;20441;-80
2023/02/14 05:30:47;;;;;;;55.17;32.13;;;3.50;99.90;;;;;;5106729;28;20453;-80
2023/02/14 05:33:14;;;;;;;61.63;34.50;;;3.50;99.90;;;;;;5107148;28;20449;-80
2023/02/14 05:35:41;;;;;;;58.53;33.90;;;3.50;99.90;;;;;;5108227;28;20458;-75
2023/02/14 05:38:08;;;;;;;64.70;35.20;;;3.50;99.90;;;;;;5097765;28;20502;-77
2023/02/14 05:40:35;;;;;;;56.53;34.33;;;3.50;99.90;;;;;;5104945;28;20465;-78
2023/02/14 05:43:03;;;;;;;61.70;34.93;;;3.50;99.90;;;;;;5109143;28;20474;-77
2023/02/14 05:45:31;;;;;;;61.67;34.63;;;3.50;99.90;;;;;;5104922;28;20461;-76
2023/02/14 05:47:59;;;;;;;60.97;34.00;;;3.50;99.90;;;;;;5092791;28;20449;-77
2023/02/14 05:50:26;;;;;;;63.80;35.00;;;3.40;99.90;;;;;;5111527;28;20442;-78
2023/02/14 05:52:54;;;;;;;58.00;35.33;;;3.50;99.90;;;;;;5101682;28;20439;-80
2023/02/14 05:55:21;;;;;;;58.00;34.43;;;3.50;99.90;;;;;;5110883;28;20437;-77
2023/02/14 05:57:48;;;;;;;65.03;34.53;;;3.50;99.90;;;;;;5112895;28;20512;-79
2023/02/14 06:00:18;;;;;;;65.93;36.47;;;3.50;99.90;;;;;;5107413;28;20436;-80
2023/02/14 06:02:56;;;;;;;66.77;36.20;;;3.50;99.90;;;;;;5118733;28;20452;-81
2023/02/14 06:05:28;;;;;;;68.03;35.17;;;3.50;99.90;;;;;;5102702;28;20440;-80
2023/02/14 06:08:01;;;;;;;64.47;35.37;;;3.50;99.90;;;;;;5117917;28;20457;-82
2023/02/14 06:10:34;;;;;;;63.20;35.00;;;3.40;99.90;;;;;;5117795;28;20440;-80
2023/02/14 06:13:07;;;;;;;61.65;35.08;;;3.40;99.90;;;;;;5117571;28;20420;-79
2023/02/14 06:15:34;;;;;;;66.80;35.03;;;3.40;99.90;;;;;;5114094;28;20288;-83
2023/02/14 06:18:02;;;;;;;59.30;34.30;;;3.40;99.90;;;;;;5101585;28;20491;-81
2023/02/14 06:20:32;;;;;;;58.07;33.37;;;3.40;99.90;;;;;;5101694;28;20442;-82
2023/02/14 06:22:59;;;;;;;61.53;33.83;;;3.40;99.90;;;;;;5101915;28;20441;-80
2023/02/14 06:25:26;;;;;;;59.80;33.97;;;3.40;99.90;;;;;;5101173;28;20455;-79
2023/02/14 06:27:57;;;;;;;59.67;33.87;;;3.40;99.90;;;;;;5101416;28;20485;-81
2023/02/14 06:30:24;;;;;;;63.63;33.83;;;3.40;99.90;;;;;;5088128;28;20439;-81
2023/02/14 06:32:53;;;;;;;56.77;33.50;;;3.40;99.90;;;;;;5100680;28;20450;-85
2023/02/14 06:35:21;;;;;;;63.67;34.03;;;3.40;99.90;;;;;;5099762;28;20503;-82
2023/02/14 06:37:50;;;;;;;61.73;34.37;;;3.40;99.90;;;;;;5091746;28;20497;-80
2023/02/14 06:40:18;;;;;;;65.83;33.90;;;3.40;99.90;;;;;;5092532;28;20469;-86
2023/02/14 06:42:46;;;;;;;59.60;34.23;;;3.40;99.90;;;;;;5090937;28;20468;-80
2023/02/14 06:45:13;;;;;;;64.20;32.77;;;3.30;99.90;;;;;;5088569;28;20645;-85
2023/02/14 06:47:40;;;;;;;61.70;33.67;;;3.30;99.90;;;;;;5099765;28;20446;-85
2023/02/14 06:50:10;;;;;;;54.67;31.87;;;3.30;99.90;;;;;;5100275;28;20442;-85
2023/02/14 06:52:37;;;;;;;60.57;32.47;;;3.40;99.90;;;;;;5079440;28;20816;-79
2023/02/14 06:55:08;;;;;;;55.83;32.37;;;3.30;99.90;;;;;;5096895;28;20446;-83
2023/02/14 06:57:35;;;;;;;57.23;33.10;;;3.40;99.90;;;;;;5087978;28;20853;-83
2023/02/14 07:00:02;;;;;;;58.97;32.83;;;3.30;99.90;;;;;;5093322;28;21152;-84
2023/02/14 07:02:30;;;;;;;59.30;31.67;;;3.20;99.90;;;;;;5090632;28;20457;-83
2023/02/14 07:04:57;;;;;;;54.50;30.67;;;3.10;99.90;;;;;;5100140;28;20467;-89
2023/02/14 07:07:24;;;;;;;55.87;32.13;;;3.10;99.90;;;;;;5093315;28;20526;-86
2023/02/14 07:09:54;;;;;;;55.63;31.87;;;3.00;99.90;;;;;;5091999;28;20434;-86
2023/02/14 07:12:23;;;;;;;57.07;32.47;;;3.00;99.90;;;;;;5085552;28;20440;-87
2023/02/14 07:14:49;;;;;;;54.43;31.43;;;3.00;99.90;;;;;;5084400;28;20470;-85
2023/02/14 07:17:16;;;;;;;55.00;31.17;;;3.00;99.90;;;;;;5084769;28;20516;-83
2023/02/14 07:19:43;;;;;;;59.67;31.70;;;3.00;99.90;;;;;;5084908;28;20453;-86
2023/02/14 07:22:12;;;;;;;53.17;31.23;;;2.90;99.90;;;;;;5089711;28;20469;-87
2023/02/14 07:24:46;;;;;;;52.33;31.00;;;2.70;99.90;;;;;;5091559;28;20447;-85
2023/02/14 07:27:12;;;;;;;53.77;31.30;;;2.60;99.90;;;;;;5091361;28;20438;-82
2023/02/14 07:29:41;;;;;;;51.87;30.73;;;2.70;99.90;;;;;;5096573;28;20457;-82
2023/02/14 07:32:14;;;;;;;54.37;32.63;;;2.80;99.90;;;;;;5107252;28;20450;-82
2023/02/14 07:34:42;;;;;;;53.73;30.47;;;2.80;99.90;;;;;;5110677;28;20519;-81
2023/02/14 07:37:11;;;;;;;52.47;30.70;;;2.80;99.90;;;;;;5096695;28;20517;-78
2023/02/14 07:39:40;;;;;;;52.07;30.10;;;2.90;99.90;;;;;;5108147;28;20418;-83
2023/02/14 07:42:07;;;;;;;58.20;31.60;;;3.00;99.90;;;;;;5116210;28;20438;-82
2023/02/14 07:44:34;;;;;;;57.40;33.30;;;3.00;99.90;;;;;;5115030;28;20430;-82
2023/02/14 07:47:03;;;;;;;58.47;32.30;;;3.10;99.90;;;;;;5102046;28;20461;-81
2023/02/14 07:49:29;;;;;;;60.23;33.30;;;3.10;99.90;;;;;;5094019;28;20850;-83
2023/02/14 07:51:57;;;;;;;51.60;31.90;;;3.10;99.90;;;;;;5087811;28;20462;-83
2023/02/14 07:54:26;;;;;;;55.00;32.23;;;3.20;99.90;;;;;;5084218;28;20450;-80
2023/02/14 07:56:53;;;;;;;61.10;35.73;;;3.20;99.90;;;;;;5098408;28;20446;-82
2023/02/14 07:59:22;;;;;;;52.13;32.87;;;3.30;99.90;;;;;;5098460;28;20511;-83
2023/02/14 08:01:57;;;;;;;59.70;34.13;;;3.40;99.90;;;;;;5101520;28;20446;-83
2023/02/14 08:04:26;;;;;;;59.37;34.03;;;3.40;99.90;;;;;;5100012;28;20936;-84
2023/02/14 08:06:57;;;;;;;61.40;34.30;;;3.50;99.90;;;;;;5100251;28;20441;-84
2023/02/14 08:09:27;;;;;;;63.53;34.33;;;3.60;99.90;;;;;;5099009;28;20828;-82
2023/02/14 08:14:40;;;;;;;61.33;33.73;;;3.70;99.90;;;;;;5099788;28;20468;-82
2023/02/14 08:17:08;;;;;;;59.70;34.80;;;3.70;99.90;;;;;;5098740;28;20438;-83
2023/02/14 08:19:37;;;;;;;61.27;35.60;;;3.80;99.90;;;;;;5097659;28;20532;-82
2023/02/14 08:22:04;;;;;;;61.83;35.80;;;3.80;99.90;;;;;;5096495;28;20972;-84
2023/02/14 08:24:31;;;;;;;57.37;33.07;;;3.90;99.90;;;;;;5096604;28;20645;-82
2023/02/14 08:26:58;;;;;;;61.77;35.83;;;3.80;99.90;;;;;;5095890;28;20442;-84
2023/02/14 08:29:25;;;;;;;59.43;35.63;;;3.90;99.90;;;;;;5095205;28;20802;-84
2023/02/14 08:31:53;;;;;;;60.27;34.63;;;4.10;99.90;;;;;;5094057;28;20204;-81
2023/02/14 08:34:19;;;;;;;58.47;33.80;;;4.10;99.90;;;;;;5093525;28;20204;-83
2023/02/14 08:36:48;;;;;;;63.20;36.37;;;4.20;99.90;;;;;;5093796;28;20450;-84
2023/02/14 08:39:14;;;;;;;63.30;33.67;;;4.30;99.90;;;;;;5093855;28;20485;-83
2023/02/14 08:41:41;;;;;;;64.97;35.60;;;4.20;99.90;;;;;;5093851;28;20199;-85
2023/02/14 08:44:08;;;;;;;57.63;33.53;;;4.40;99.90;;;;;;5094154;28;20219;-83
2023/02/14 08:46:35;;;;;;;61.40;34.47;;;4.40;99.90;;;;;;5093805;28;20255;-81
2023/02/14 08:49:02;;;;;;;58.37;34.13;;;4.50;99.90;;;;;;5092453;28;20205;-81
2023/02/14 08:51:29;;;;;;;66.37;36.60;;;4.70;99.90;;;;;;5093194;28;20197;-81
2023/02/14 08:53:57;;;;;;;53.33;34.00;;;4.80;99.90;;;;;;5093857;28;20201;-84
2023/02/14 08:56:24;;;;;;;60.23;33.90;;;4.90;99.90;;;;;;5093807;28;20208;-79
2023/02/14 08:58:53;;;;;;;57.37;34.10;;;5.00;99.90;;;;;;5087952;28;20229;-82
2023/02/14 09:01:20;;;;;;;62.13;35.50;;;5.00;99.90;;;;;;5086325;28;20211;-82
2023/02/14 09:03:47;;;;;;;50.27;33.10;;;5.20;99.90;;;;;;5093818;28;20208;-83
2023/02/14 09:06:16;;;;;;;60.57;34.40;;;5.30;99.90;;;;;;5093885;28;20205;-83
2023/02/14 09:08:44;;;;;;;54.77;33.80;;;5.40;99.90;;;;;;5089058;28;20198;-82
2023/02/14 09:11:14;;;;;;;50.73;32.20;;;5.50;99.90;;;;;;5091527;28;20193;-84
2023/02/14 09:13:41;;;;;;;52.07;32.80;;;5.60;99.90;;;;;;5095918;28;20282;-82
2023/02/14 09:16:10;;;;;;;51.67;30.93;;;5.60;99.90;;;;;;5098081;28;20205;-80
2023/02/14 09:18:39;;;;;;;49.70;29.73;;;5.70;99.90;;;;;;5096916;28;20217;-79
2023/02/14 09:21:12;;;;;;;53.23;30.43;;;5.80;99.90;;;;;;5099420;28;20237;-82
2023/02/14 09:23:39;;;;;;;46.23;29.30;;;5.80;99.90;;;;;;5093728;28;20205;-84
2023/02/14 09:26:08;;;;;;;53.63;30.80;;;5.90;99.90;;;;;;5098836;28;20660;-82
2023/02/14 09:28:37;;;;;;;50.17;30.37;;;6.10;99.90;;;;;;5101620;28;20208;-85
2023/02/14 09:31:09;;;;;;;48.37;30.23;;;6.10;99.90;;;;;;5101097;28;20652;-85
2023/02/14 09:36:20;;;;;;;47.43;29.93;;;6.20;99.90;;;;;;5100596;28;20276;-80
2023/02/14 09:38:47;;;;;;;50.13;29.93;;;6.40;99.90;;;;;;5099804;28;20228;-82
2023/02/14 09:41:45;;;;;;;49.70;30.87;;;6.50;99.90;;;;;;5100223;28;20201;-79
2023/02/14 09:44:23;;;;;;;42.67;29.43;;;6.60;99.90;;;;;;5098270;28;20552;-79
2023/02/14 09:46:56;;;;;;;44.07;29.80;;;6.60;99.90;;;;;;5097800;28;20527;-80
2023/02/14 09:49:31;;;;;;;48.33;27.63;;;6.70;99.90;;;;;;5097696;28;20213;-80
2023/02/14 09:52:04;;;;;;;44.07;29.30;;;6.80;99.90;;;;;;5098638;28;20184;-79
2023/02/14 09:54:34;;;;;;;41.43;27.67;;;6.80;99.90;;;;;;5099398;28;20197;-80
2023/02/14 09:57:08;;;;;;;38.93;27.87;;;6.80;99.90;;;;;;5097890;28;20201;-82
2023/02/14 09:59:43;;;;;;;40.37;27.07;;;6.90;99.90;;;;;;5099005;28;20235;-79
2023/02/14 10:02:29;;;;;;;41.10;27.57;;;7.10;99.90;;;;;;5098326;28;20197;-78
2023/02/14 10:05:06;;;;;;;45.27;27.77;;;7.20;99.90;;;;;;5098580;28;20210;-78
2023/02/14 10:07:43;;;;;;;37.90;26.30;;;7.30;99.90;;;;;;5098894;28;20212;-79
2023/02/14 10:10:16;;;;;;;42.90;27.43;;;7.40;99.90;;;;;;5098692;28;20208;-88
2023/02/14 10:12:47;;;;;;;43.55;33.85;;;7.40;99.90;;;;;;5096310;28;20442;-82
2023/02/14 10:15:19;;;;;;;42.10;27.00;;;7.50;99.90;;;;;;5097246;28;20201;-82
2023/02/14 10:17:48;;;;;;;40.73;26.73;;;7.50;99.90;;;;;;5096351;28;20687;-84
2023/02/14 10:20:20;;;;;;;41.10;27.70;;;7.60;99.90;;;;;;5097913;28;20189;-83
2023/02/14 10:22:55;;;;;;;39.17;26.10;;;7.80;99.90;;;;;;5098029;28;20653;-81
2023/02/14 10:25:26;;;;;;;39.90;26.90;;;7.80;99.90;;;;;;5097666;28;20189;-79
2023/02/14 10:27:55;;;;;;;42.13;25.80;;;7.80;99.90;;;;;;5097518;28;20193;-78
2023/02/14 10:30:24;;;;;;;40.67;26.27;;;7.90;99.90;;;;;;5097375;28;20698;-79
2023/02/14 10:32:58;;;;;;;41.23;27.07;;;8.00;99.90;;;;;;5096061;28;20337;-79
2023/02/14 10:35:37;;;;;;;38.97;26.67;;;8.10;99.90;;;;;;5096300;28;20667;-79
2023/02/14 10:38:16;;;;;;;37.90;25.97;;;8.20;99.90;;;;;;5096108;28;20209;-82
2023/02/14 10:41:16;;;;;;;34.67;25.47;;;8.20;99.90;;;;;;5095973;28;20633;-79
2023/02/14 10:43:49;;;;;;;39.90;25.60;;;8.30;99.90;;;;;;5096304;28;20216;-81
2023/02/14 10:46:29;;;;;;;37.53;25.67;;;8.50;99.90;;;;;;5095836;28;20189;-80
2023/02/14 10:49:02;;;;;;;40.67;27.27;;;8.50;99.90;;;;;;5096078;28;20683;-79
2023/02/14 10:51:35;;;;;;;39.47;27.37;;;8.50;99.90;;;;;;5095827;28;20645;-81
2023/02/14 10:54:16;;;;;;;37.97;26.10;;;8.40;99.90;;;;;;5096167;28;20189;-79
2023/02/14 10:56:47;;;;;;;38.13;26.47;;;8.60;99.90;;;;;;5095548;28;20286;-80
2023/02/14 10:59:22;;;;;;;34.07;25.47;;;8.80;99.90;;;;;;5095926;28;20232;-79
2023/02/14 11:01:53;;;;;;;38.30;25.60;;;8.90;99.90;;;;;;5095655;28;20537;-80
2023/02/14 11:04:21;;;;;;;37.63;26.43;;;9.00;99.90;;;;;;5096086;28;20202;-80
2023/02/14 11:06:49;;;;;;;37.07;25.13;;;9.00;99.90;;;;;;5095440;28;20209;-84
2023/02/14 11:09:16;;;;;;;36.70;25.90;;;9.10;99.90;;;;;;5095489;28;20623;-83
2023/02/14 11:11:46;;;;;;;35.80;25.60;;;9.20;99.90;;;;;;5089445;28;20222;-83
2023/02/14 11:14:23;;;;;;;35.87;25.83;;;9.30;99.90;;;;;;5080464;28;20221;-81
2023/02/14 11:16:53;;;;;;;35.93;26.47;;;9.40;99.90;;;;;;5075318;28;20297;-85
2023/02/14 11:19:23;;;;;;;38.57;25.93;;;9.40;99.90;;;;;;5075169;28;20754;-82
2023/02/14 11:21:51;;;;;;;35.53;25.67;;;9.40;99.90;;;;;;5081634;28;20220;-80
2023/02/14 11:24:26;;;;;;;33.43;25.63;;;9.40;99.90;;;;;;5086106;28;20198;-81
2023/02/14 11:26:56;;;;;;;36.17;24.07;;;9.50;99.90;;;;;;5085771;28;20190;-85
2023/02/14 11:29:27;;;;;;;38.50;25.90;;;9.60;99.90;;;;;;5095236;28;20205;-78
2023/02/14 11:31:56;;;;;;;38.20;26.53;;;9.50;99.90;;;;;;5094959;28;20552;-81
2023/02/14 11:34:35;;;;;;;35.40;25.73;;;9.70;99.90;;;;;;5095140;28;20197;-80
2023/02/14 11:37:03;;;;;;;38.53;26.03;;;9.80;99.90;;;;;;5094553;28;20232;-79
2023/02/14 11:39:34;;;;;;;35.17;25.17;;;9.90;99.90;;;;;;5094827;28;20225;-80
2023/02/14 11:42:04;;;;;;;35.20;25.50;;;9.90;99.90;;;;;;5094673;28;20231;-79
2023/02/14 11:44:33;;;;;;;32.97;25.50;;;9.90;99.90;;;;;;5094860;28;20201;-81
2023/02/14 11:47:19;;;;;;;38.40;26.73;;;10.00;99.90;;;;;;5094699;28;20202;-80
2023/02/14 11:49:56;;;;;;;35.83;24.83;;;10.10;99.90;;;;;;5094609;28;20196;-79
2023/02/14 11:52:25;;;;;;;36.77;25.53;;;9.90;99.90;;;;;;5094876;28;20189;-80
2023/02/14 11:54:53;;;;;;;34.90;25.27;;;9.90;99.90;;;;;;5094585;28;20695;-79
2023/02/14 11:57:26;;;;;;;35.17;25.93;;;10.00;99.90;;;;;;5094327;28;20205;-80
2023/02/14 11:59:57;;;;;;;37.97;25.33;;;10.20;99.90;;;;;;5094578;28;20584;-82
2023/02/14 12:02:30;;;;;;;35.70;26.90;;;10.40;99.90;;;;;;5094256;28;20197;-80
2023/02/14 12:05:00;;;;;;;34.30;26.23;;;10.60;99.90;;;;;;5094533;28;20195;-82
2023/02/14 12:07:29;;;;;;;32.40;25.20;;;10.90;99.90;;;;;;5094341;28;20247;-81
2023/02/14 12:10:24;;;;;;;36.07;26.00;;;11.00;99.90;;;;;;5094335;28;20225;-78
2023/02/14 12:12:54;;;;;;;36.40;25.87;;;10.90;99.90;;;;;;5088958;28;20201;-81
2023/02/14 12:15:28;;;;;;;36.43;27.03;;;10.80;99.90;;;;;;5094105;28;20210;-81
2023/02/14 12:18:02;;;;;;;38.43;26.20;;;10.90;99.90;;;;;;5093903;28;20207;-77
2023/02/14 12:20:40;;;;;;;37.87;26.47;;;10.90;99.90;;;;;;5085686;28;20227;-78
2023/02/14 12:23:20;;;;;;;36.80;25.87;;;11.10;99.90;;;;;;5090973;28;20210;-79
2023/02/14 12:25:54;;;;;;;35.57;26.43;;;11.30;99.90;;;;;;5088954;28;20205;-78
2023/02/14 12:28:29;;;;;;;40.20;27.23;;;11.40;99.90;;;;;;5085629;28;20214;-78
2023/02/14 12:30:57;;;;;;;35.33;26.30;;;11.30;99.90;;;;;;5083869;28;20313;-79
2023/02/14 12:33:25;;;;;;;38.33;29.07;;;11.20;99.90;;;;;;5084620;28;20215;-79
2023/02/14 12:36:02;;;;;;;36.43;27.10;;;11.30;99.90;;;;;;5087800;28;20208;-79
2023/02/14 12:38:41;;;;;;;36.30;26.50;;;11.50;99.90;;;;;;5093303;28;20217;-78
2023/02/14 12:41:24;;;;;;;38.40;26.83;;;11.40;99.90;;;;;;5093132;28;20207;-78
2023/02/14 12:43:54;;;;;;;39.80;27.03;;;11.40;99.90;;;;;;5092631;28;20218;-80
2023/02/14 12:46:56;;;;;;;42.00;27.23;;;11.50;99.90;;;;;;5093419;28;20200;-80
2023/02/14 12:49:48;;;;;;;39.20;26.93;;;11.60;99.90;;;;;;5086315;28;20213;-80
2023/02/14 12:52:30;;;;;;;36.93;26.13;;;11.60;99.90;;;;;;5093270;28;20211;-79
2023/02/14 12:55:13;;;;;;;37.87;27.67;;;11.80;99.90;;;;;;5092509;28;20200;-79
2023/02/14 12:57:46;;;;;;;42.27;27.67;;;11.80;99.90;;;;;;5093121;28;20563;-79
2023/02/14 13:00:28;;;;;;;40.50;27.83;;;12.00;99.90;;;;;;5093117;28;20246;-79
2023/02/14 13:03:24;;;;;;;43.33;28.30;;;12.00;99.90;;;;;;5092876;28;20211;-80
2023/02/14 13:06:01;;;;;;;41.87;28.17;;;12.20;99.90;;;;;;5088639;28;20209;-78
2023/02/14 13:08:44;;;;;;;40.20;28.50;;;12.30;99.90;;;;;;5092352;28;20216;-79
2023/02/14 13:11:22;;;;;;;35.80;26.70;;;12.40;99.90;;;;;;5092905;28;20205;-78
2023/02/14 13:14:02;;;;;;;40.63;27.70;;;12.30;99.90;;;;;;5082467;28;20231;-79
2023/02/14 13:16:37;;;;;;;41.80;26.87;;;12.20;99.90;;;;;;5077035;28;20656;-79
2023/02/14 13:19:13;;;;;;;37.30;26.27;;;12.20;99.90;;;;;;5092103;28;20695;-78